createdAt,value
2019-05-17T00:01:33.810Z,16.03
2019-05-17T00:04:04.263Z,14.97
2019-05-17T00:06:36.808Z,15.07
2019-05-17T00:09:26.816Z,15.77
2019-05-17T00:12:09.418Z,14.80
2019-05-17T00:14:39.827Z,14.73
2019-05-17T00:17:10.298Z,16.93
2019-05-17T00:19:40.702Z,15.70
2019-05-17T00:22:11.275Z,13.93
2019-05-17T00:24:41.660Z,13.97
2019-05-17T00:27:12.176Z,16.23
2019-05-17T00:29:42.576Z,18.20
2019-05-17T00:32:13.047Z,15.83
2019-05-17T00:35:02.968Z,16.97
2019-05-17T00:37:33.397Z,16.50
2019-05-17T00:40:03.905Z,17.20
2019-05-17T00:42:34.374Z,19.77
2019-05-17T00:45:06.768Z,18.90
2019-05-17T00:47:48.719Z,18.07
2019-05-17T00:50:19.256Z,18.63
2019-05-17T00:52:49.701Z,16.60
2019-05-17T00:55:26.803Z,18.50
2019-05-17T00:58:09.542Z,19.60
2019-05-17T01:00:40.018Z,17.83
2019-05-17T01:03:10.570Z,18.70
2019-05-17T01:05:41.040Z,17.53
2019-05-17T01:08:11.524Z,17.77
2019-05-17T01:10:41.907Z,17.37
2019-05-17T01:13:12.497Z,17.37
2019-05-17T01:15:42.851Z,16.87
2019-05-17T01:18:13.381Z,17.03
2019-05-17T01:23:57.829Z,17.47
2019-05-17T01:26:28.309Z,18.47
2019-05-17T01:28:58.879Z,20.37
2019-05-17T01:31:29.268Z,17.80
2019-05-17T01:34:19.122Z,17.20
2019-05-17T01:36:49.493Z,18.30
2019-05-17T01:39:21.472Z,19.50
2019-05-17T01:42:03.407Z,19.00
2019-05-17T01:44:33.807Z,19.80
2019-05-17T01:47:04.166Z,19.43
2019-05-17T01:49:36.290Z,18.57
2019-05-17T01:52:27.331Z,17.93
2019-05-17T01:55:09.209Z,19.23
2019-05-17T01:57:39.707Z,18.87
2019-05-17T02:00:37.300Z,18.60
2019-05-17T02:03:12.362Z,19.70
2019-05-17T02:05:42.859Z,17.13
2019-05-17T02:08:13.389Z,19.97
2019-05-17T02:10:44.069Z,19.27
2019-05-17T02:13:16.413Z,20.70
2019-05-17T02:15:57.721Z,21.10
2019-05-17T02:18:28.162Z,18.97
2019-05-17T02:20:58.585Z,20.40
2019-05-17T02:23:28.973Z,20.40
2019-05-17T02:25:59.396Z,20.20
2019-05-17T02:28:32.033Z,19.20
2019-05-17T02:31:07.340Z,19.40
2019-05-17T02:33:38.074Z,21.33
2019-05-17T02:36:46.647Z,19.37
2019-05-17T02:39:17.113Z,20.63
2019-05-17T02:41:47.634Z,19.60
2019-05-17T02:44:18.052Z,20.60
2019-05-17T02:46:48.464Z,20.40
2019-05-17T02:49:19.008Z,19.53
2019-05-17T02:52:08.789Z,20.77
2019-05-17T02:54:39.179Z,19.70
2019-05-17T02:57:09.569Z,21.00
2019-05-17T02:59:43.151Z,18.20
2019-05-17T03:02:27.704Z,20.70
2019-05-17T03:05:08.116Z,19.00
2019-05-17T03:07:38.482Z,19.13
2019-05-17T03:10:29.131Z,20.63
2019-05-17T03:13:05.881Z,19.77
2019-05-17T03:15:36.259Z,20.20
2019-05-17T03:18:06.717Z,18.47
2019-05-17T03:20:37.122Z,19.87
2019-05-17T03:23:07.499Z,18.83
2019-05-17T03:25:57.252Z,20.70
2019-05-17T03:28:27.727Z,19.30
2019-05-17T03:30:58.132Z,20.20
2019-05-17T03:33:28.825Z,20.27
2019-05-17T03:36:05.385Z,20.83
2019-05-17T03:38:53.423Z,20.10
2019-05-17T03:41:34.327Z,22.50
2019-05-17T03:44:17.499Z,20.37
2019-05-17T03:46:47.885Z,22.23
2019-05-17T03:49:18.356Z,23.17
2019-05-17T03:51:48.698Z,20.90
2019-05-17T03:54:22.417Z,23.67
2019-05-17T03:57:03.097Z,24.17
2019-05-17T03:59:45.927Z,22.43
2019-05-17T04:02:16.382Z,24.40
2019-05-17T04:04:52.703Z,22.07
2019-05-17T04:07:33.262Z,23.23
2019-05-17T04:10:04.621Z,22.57
2019-05-17T04:12:44.080Z,23.57
2019-05-17T04:15:24.384Z,21.70
2019-05-17T04:18:07.234Z,22.43
2019-05-17T04:20:37.595Z,20.13
2019-05-17T04:23:07.977Z,20.83
2019-05-17T04:25:57.782Z,19.63
2019-05-17T04:28:28.214Z,20.73
2019-05-17T04:31:17.993Z,19.23
2019-05-17T04:33:48.463Z,19.17
2019-05-17T04:36:22.243Z,20.60
2019-05-17T04:39:02.558Z,18.47
2019-05-17T04:41:49.941Z,22.60
2019-05-17T04:44:28.817Z,21.03
2019-05-17T04:47:06.666Z,20.73
2019-05-17T04:49:37.151Z,18.80
2019-05-17T04:52:07.554Z,21.30
2019-05-17T04:54:38.026Z,20.57
2019-05-17T04:57:08.424Z,20.00
2019-05-17T04:59:38.856Z,18.73
2019-05-17T05:02:09.268Z,19.27
2019-05-17T05:04:43.229Z,19.57
2019-05-17T05:07:33.570Z,19.90
2019-05-17T05:10:14.697Z,19.30
2019-05-17T05:12:45.089Z,19.27
2019-05-17T05:15:53.923Z,18.20
2019-05-17T05:18:24.306Z,19.77
2019-05-17T05:20:54.733Z,20.03
2019-05-17T05:23:25.147Z,18.53
2019-05-17T05:25:55.613Z,18.30
2019-05-17T05:28:26.084Z,17.90
2019-05-17T05:30:56.484Z,18.70
2019-05-17T05:33:26.947Z,16.47
2019-05-17T05:35:57.434Z,16.93
2019-05-17T05:38:27.925Z,16.93
2019-05-17T05:40:58.330Z,15.47
2019-05-17T05:43:28.758Z,16.13
2019-05-17T05:45:59.310Z,15.70
2019-05-17T05:48:32.370Z,16.17
2019-05-17T05:51:13.707Z,15.70
2019-05-17T05:53:52.191Z,15.47
2019-05-17T05:56:33.532Z,14.67
2019-05-17T05:59:03.905Z,14.40
2019-05-17T06:01:34.394Z,14.10
2019-05-17T06:04:04.838Z,13.47
2019-05-17T06:06:35.364Z,13.40
2019-05-17T06:09:08.197Z,13.43
2019-05-17T06:11:38.647Z,12.37
2019-05-17T06:14:09.040Z,12.50
2019-05-17T06:16:39.516Z,11.03
2019-05-17T06:19:11.673Z,10.37
2019-05-17T06:21:52.883Z,11.10
2019-05-17T06:24:23.262Z,10.70
2019-05-17T06:26:53.683Z,10.20
2019-05-17T06:29:24.110Z,10.17
2019-05-17T06:31:54.513Z,9.50
2019-05-17T06:34:24.952Z,11.40
2019-05-17T06:36:55.444Z,10.00
2019-05-17T06:39:25.920Z,9.63
2019-05-17T06:41:56.348Z,11.10
2019-05-17T06:44:26.755Z,10.90
2019-05-17T06:46:57.170Z,9.43
2019-05-17T06:49:27.593Z,9.53
2019-05-17T06:52:17.383Z,8.50
2019-05-17T06:54:47.829Z,8.70
2019-05-17T06:57:18.214Z,8.17
2019-05-17T06:59:48.652Z,8.50
2019-05-17T07:02:19.726Z,7.50
2019-05-17T07:07:56.228Z,8.20
2019-05-17T07:10:26.642Z,8.83
2019-05-17T07:12:59.651Z,9.13
2019-05-17T07:15:47.515Z,9.00
2019-05-17T07:18:23.082Z,9.17
2019-05-17T07:20:53.486Z,8.97
2019-05-17T07:23:23.990Z,10.10
2019-05-17T07:25:54.365Z,10.40
2019-05-17T07:28:24.816Z,9.50
2019-05-17T07:31:07.181Z,9.00
2019-05-17T07:33:39.805Z,10.30
2019-05-17T07:36:20.466Z,9.30
2019-05-17T07:38:50.973Z,9.53
2019-05-17T07:41:21.331Z,9.90
2019-05-17T07:43:51.819Z,9.67
2019-05-17T07:46:22.299Z,9.97
2019-05-17T07:48:52.808Z,9.20
2019-05-17T07:51:23.330Z,9.30
2019-05-17T07:53:53.867Z,9.90
2019-05-17T07:56:24.444Z,9.50
2019-05-17T07:58:55.007Z,10.33
2019-05-17T08:01:25.455Z,8.83
2019-05-17T08:03:56.172Z,10.57
2019-05-17T08:06:26.626Z,9.40
2019-05-17T08:09:01.159Z,9.20
2019-05-17T08:11:40.062Z,8.87
2019-05-17T08:14:10.689Z,9.07
2019-05-17T08:16:41.024Z,8.83
2019-05-17T08:19:11.544Z,8.60
2019-05-17T08:21:41.927Z,9.10
2019-05-17T08:24:12.437Z,8.77
2019-05-17T08:26:42.794Z,8.27
2019-05-17T08:29:13.228Z,8.00
2019-05-17T08:31:43.643Z,7.90
2019-05-17T08:34:14.065Z,7.20
2019-05-17T08:36:44.440Z,6.40
2019-05-17T08:39:15.237Z,7.37
2019-05-17T08:41:45.812Z,8.50
2019-05-17T08:44:16.390Z,6.90
2019-05-17T08:46:46.934Z,6.50
2019-05-17T08:49:17.427Z,6.73
2019-05-17T08:51:49.935Z,6.47
2019-05-17T08:54:33.406Z,6.10
2019-05-17T08:57:04.100Z,6.30
2019-05-17T08:59:34.594Z,6.40
2019-05-17T09:02:10.645Z,4.87
2019-05-17T09:05:00.433Z,5.10
2019-05-17T09:07:44.450Z,5.27
2019-05-17T09:10:15.078Z,5.47
2019-05-17T09:12:45.566Z,5.00
2019-05-17T09:18:12.839Z,5.70
2019-05-17T09:20:43.258Z,6.07
2019-05-17T09:23:16.890Z,5.40
2019-05-17T09:25:50.148Z,6.93
2019-05-17T09:28:27.119Z,5.90
2019-05-17T09:30:59.692Z,5.30
2019-05-17T09:33:49.730Z,6.77
2019-05-17T09:36:32.082Z,6.20
2019-05-17T09:39:02.499Z,6.70
2019-05-17T09:41:52.289Z,7.00
2019-05-17T09:44:22.775Z,5.73
2019-05-17T09:46:53.113Z,4.80
2019-05-17T09:49:23.585Z,5.27
2019-05-17T09:51:54.127Z,5.10
2019-05-17T09:54:45.398Z,5.40
2019-05-17T09:57:36.075Z,3.73
2019-05-17T10:00:09.691Z,3.37
2019-05-17T10:03:00.053Z,3.43
2019-05-17T10:05:41.591Z,4.60
2019-05-17T10:08:12.138Z,4.87
2019-05-17T10:11:08.615Z,4.70
2019-05-17T10:13:45.588Z,4.43
2019-05-17T10:16:16.112Z,4.77
2019-05-17T10:18:46.683Z,4.37
2019-05-17T10:21:17.063Z,4.37
2019-05-17T10:23:49.693Z,6.00
2019-05-17T10:26:30.697Z,5.50
2019-05-17T10:29:01.165Z,4.40
2019-05-17T10:31:31.701Z,5.20
2019-05-17T10:34:02.240Z,3.63
2019-05-17T10:36:32.665Z,4.30
2019-05-17T10:39:03.081Z,3.90
2019-05-17T10:41:33.513Z,3.27
2019-05-17T10:44:04.241Z,3.40
2019-05-17T10:46:34.759Z,4.70
2019-05-17T10:49:05.270Z,3.40
2019-05-17T10:51:35.825Z,3.77
2019-05-17T10:54:06.267Z,3.83
2019-05-17T10:56:36.861Z,3.47
2019-05-17T10:59:09.660Z,3.47
2019-05-17T11:01:50.309Z,4.17
2019-05-17T11:04:32.924Z,3.90
2019-05-17T11:07:22.817Z,4.30
2019-05-17T11:09:53.292Z,4.10
2019-05-17T11:12:25.303Z,4.20
2019-05-17T11:15:09.818Z,4.23
2019-05-17T11:17:38.704Z,4.40
2019-05-17T11:23:11.206Z,3.77
2019-05-17T11:25:45.531Z,4.23
2019-05-17T11:28:25.133Z,3.80
2019-05-17T11:30:55.817Z,3.50
2019-05-17T11:33:26.183Z,4.40
2019-05-17T11:35:56.717Z,4.00
2019-05-17T11:38:27.233Z,3.40
2019-05-17T11:40:57.636Z,3.40
2019-05-17T11:43:28.276Z,3.70
2019-05-17T11:45:58.719Z,3.57
2019-05-17T11:48:29.393Z,3.80
2019-05-17T11:50:59.886Z,4.10
2019-05-17T11:53:30.395Z,4.00
2019-05-17T11:56:01.019Z,3.90
2019-05-17T11:58:33.048Z,3.60
2019-05-17T12:01:03.476Z,4.10
2019-05-17T12:03:33.892Z,3.47
2019-05-17T12:06:23.712Z,3.47
2019-05-17T12:08:54.216Z,3.67
2019-05-17T12:11:24.618Z,3.30
2019-05-17T12:13:55.026Z,3.47
2019-05-17T12:16:25.470Z,3.70
2019-05-17T12:18:55.882Z,4.93
2019-05-17T12:21:26.357Z,3.77
2019-05-17T12:23:56.907Z,3.77
2019-05-17T12:26:27.410Z,4.00
2019-05-17T12:28:57.858Z,3.50
2019-05-17T12:31:28.365Z,3.20
2019-05-17T12:33:58.813Z,4.50
2019-05-17T12:36:29.257Z,3.50
2019-05-17T12:38:59.679Z,3.43
2019-05-17T12:41:30.118Z,3.90
2019-05-17T12:44:00.523Z,3.30
2019-05-17T12:46:30.957Z,3.43
2019-05-17T12:49:02.091Z,3.53
2019-05-17T12:51:53.023Z,4.10
2019-05-17T12:54:23.437Z,3.60
2019-05-17T12:56:54.021Z,3.63
2019-05-17T12:59:24.423Z,3.60
2019-05-17T13:01:54.991Z,3.40
2019-05-17T13:04:25.478Z,3.80
2019-05-17T13:06:55.972Z,3.57
2019-05-17T13:09:26.517Z,3.97
2019-05-17T13:11:57.318Z,3.03
2019-05-17T13:14:28.105Z,3.60
2019-05-17T13:16:58.482Z,3.20
2019-05-17T13:19:28.906Z,3.63
2019-05-17T13:21:59.341Z,2.40
2019-05-17T13:24:29.771Z,3.13
2019-05-17T13:27:00.247Z,3.20
2019-05-17T13:29:30.853Z,3.33
2019-05-17T13:32:01.299Z,3.63
2019-05-17T13:34:31.817Z,3.17
2019-05-17T13:37:02.262Z,3.00
2019-05-17T13:39:52.060Z,3.10
2019-05-17T13:42:22.593Z,2.73
2019-05-17T13:44:53.121Z,3.13
2019-05-17T13:47:23.696Z,2.70
2019-05-17T13:49:54.186Z,2.83
2019-05-17T13:52:24.718Z,2.87
2019-05-17T13:54:55.173Z,3.00
2019-05-17T13:57:25.677Z,2.97
2019-05-17T13:59:56.167Z,3.00
2019-05-17T14:02:26.547Z,3.00
2019-05-17T14:04:57.098Z,2.37
2019-05-17T14:07:27.553Z,2.80
2019-05-17T14:09:58.009Z,2.33
2019-05-17T14:12:28.341Z,2.70
2019-05-17T14:14:58.916Z,2.50
2019-05-17T14:17:29.324Z,2.83
2019-05-17T14:19:59.908Z,3.00
2019-05-17T14:22:30.296Z,2.57
2019-05-17T14:25:00.839Z,2.50
2019-05-17T14:27:31.244Z,2.37
2019-05-17T14:30:01.811Z,2.53
2019-05-17T14:32:32.180Z,2.40
2019-05-17T14:35:02.779Z,2.60
2019-05-17T14:37:33.176Z,2.33
2019-05-17T14:40:03.690Z,2.47
2019-05-17T14:42:34.180Z,2.70
2019-05-17T14:45:04.842Z,2.90
2019-05-17T14:47:35.239Z,3.30
2019-05-17T14:50:05.877Z,2.53
2019-05-17T14:52:36.271Z,2.30
2019-05-17T14:55:06.793Z,2.20
2019-05-17T14:57:37.299Z,2.63
2019-05-17T15:00:14.082Z,2.20
2019-05-17T15:02:44.492Z,2.30
2019-05-17T15:05:15.129Z,2.83
2019-05-17T15:07:45.530Z,2.37
2019-05-17T15:10:16.163Z,2.67
2019-05-17T15:12:46.825Z,2.33
2019-05-17T15:15:25.628Z,2.83
2019-05-17T15:17:59.641Z,2.20
2019-05-17T15:20:30.075Z,2.97
2019-05-17T15:23:19.850Z,3.10
2019-05-17T15:25:50.375Z,3.30
2019-05-17T15:28:20.733Z,2.67
2019-05-17T15:30:51.250Z,2.43
2019-05-17T15:33:21.635Z,3.03
2019-05-17T15:36:11.473Z,2.90
2019-05-17T15:39:01.251Z,3.17
2019-05-17T15:41:31.742Z,2.80
2019-05-17T15:44:02.316Z,2.77
2019-05-17T15:46:32.700Z,2.67
2019-05-17T15:49:23.634Z,2.90
2019-05-17T15:52:13.467Z,3.10
2019-05-17T15:54:43.868Z,3.30
2019-05-17T15:57:14.366Z,2.80
2019-05-17T15:59:44.780Z,2.80
2019-05-17T16:02:15.190Z,2.50
2019-05-17T16:04:45.633Z,2.50
2019-05-17T16:07:16.081Z,2.70
2019-05-17T16:09:46.638Z,2.57
2019-05-17T16:12:17.072Z,3.40
2019-05-17T16:14:47.492Z,2.57
2019-05-17T16:17:17.978Z,2.93
2019-05-17T16:19:48.373Z,2.60
2019-05-17T16:22:18.823Z,2.77
2019-05-17T16:24:49.316Z,2.93
2019-05-17T16:27:19.742Z,2.73
2019-05-17T16:29:50.124Z,3.00
2019-05-17T16:32:20.665Z,2.77
2019-05-17T16:34:51.152Z,2.73
2019-05-17T16:37:21.700Z,3.30
2019-05-17T16:39:52.223Z,2.67
2019-05-17T16:42:22.655Z,3.00
2019-05-17T16:44:53.014Z,3.30
2019-05-17T16:47:42.842Z,3.13
2019-05-17T16:50:13.352Z,3.33
2019-05-17T16:52:43.821Z,3.63
2019-05-17T16:58:39.483Z,3.80
2019-05-17T17:01:10.089Z,3.57
2019-05-17T17:03:44.269Z,3.70
2019-05-17T17:06:23.971Z,3.60
2019-05-17T17:09:13.842Z,3.80
2019-05-17T17:11:45.807Z,4.30
2019-05-17T17:14:27.822Z,3.90
2019-05-17T17:16:58.221Z,3.90
2019-05-17T17:19:28.811Z,4.77
2019-05-17T17:22:18.652Z,4.30
2019-05-17T17:28:10.506Z,4.90
2019-05-17T17:30:40.993Z,4.27
2019-05-17T17:33:11.468Z,5.03
2019-05-17T17:35:41.968Z,5.27
2019-05-17T17:38:12.927Z,4.73
2019-05-17T17:41:02.724Z,6.30
2019-05-17T17:43:33.240Z,5.40
2019-05-17T17:46:03.734Z,6.30
2019-05-17T17:48:34.120Z,6.30
2019-05-17T17:51:04.587Z,5.50
2019-05-17T17:53:54.402Z,5.80
2019-05-17T17:56:44.167Z,5.80
2019-05-17T17:59:14.711Z,6.27
2019-05-17T18:01:45.175Z,6.60
2019-05-17T18:04:16.312Z,6.33
2019-05-17T18:07:06.137Z,6.00
2019-05-17T18:09:36.681Z,7.20
2019-05-17T18:12:07.188Z,6.67
2019-05-17T18:14:57.025Z,6.80
2019-05-17T18:17:27.445Z,6.40
2019-05-17T18:19:57.898Z,6.33
2019-05-17T18:22:28.270Z,6.70
2019-05-17T18:24:58.714Z,6.77
2019-05-17T18:27:29.161Z,6.33
2019-05-17T18:29:59.680Z,6.47
2019-05-17T18:32:49.490Z,6.70
2019-05-17T18:35:19.989Z,7.43
2019-05-17T18:37:50.374Z,6.17
2019-05-17T18:40:20.846Z,6.60
2019-05-17T18:42:51.217Z,6.47
2019-05-17T18:45:41.064Z,6.60
2019-05-17T18:48:11.604Z,5.87
2019-05-17T18:50:42.124Z,7.20
2019-05-17T18:53:16.820Z,6.60
2019-05-17T18:55:56.598Z,6.50
2019-05-17T18:58:27.027Z,6.23
2019-05-17T19:00:57.442Z,7.13
2019-05-17T19:03:27.880Z,7.10
2019-05-17T19:05:58.427Z,6.87
2019-05-17T19:08:50.937Z,7.50
2019-05-17T19:11:21.401Z,7.47
2019-05-17T19:13:52.001Z,6.73
2019-05-17T19:16:22.513Z,7.40
2019-05-17T19:18:52.893Z,6.20
2019-05-17T19:21:23.320Z,6.27
2019-05-17T19:23:53.815Z,6.17
2019-05-17T19:26:24.496Z,6.20
2019-05-17T19:28:54.926Z,5.30
2019-05-17T19:31:25.321Z,5.13
2019-05-17T19:33:55.873Z,5.50
2019-05-17T19:36:45.687Z,5.53
2019-05-17T19:39:16.124Z,6.40
2019-05-17T19:41:46.567Z,5.80
2019-05-17T19:44:16.991Z,5.70
2019-05-17T19:47:06.790Z,5.70
2019-05-17T19:49:37.305Z,5.60
2019-05-17T19:52:27.138Z,6.40
2019-05-17T19:54:57.576Z,5.70
2019-05-17T19:57:47.421Z,5.90
2019-05-17T20:00:37.250Z,5.93
2019-05-17T20:03:07.637Z,6.10
2019-05-17T20:05:38.023Z,6.00
2019-05-17T20:08:08.516Z,6.40
2019-05-17T20:10:39.010Z,5.70
2019-05-17T20:13:09.435Z,5.97
2019-05-17T20:15:39.808Z,5.33
2019-05-17T20:18:10.640Z,6.10
2019-05-17T20:20:41.032Z,5.67
2019-05-17T20:23:11.568Z,6.00
2019-05-17T20:25:42.012Z,5.57
2019-05-17T20:28:12.533Z,5.33
2019-05-17T20:31:02.318Z,6.30
2019-05-17T20:33:32.756Z,6.10
2019-05-17T20:36:03.209Z,6.07
2019-05-17T20:38:33.651Z,6.27
2019-05-17T20:41:04.079Z,6.10
2019-05-17T20:43:34.512Z,5.97
2019-05-17T20:46:04.963Z,6.33
2019-05-17T20:48:35.351Z,6.37
2019-05-17T20:51:05.798Z,6.63
2019-05-17T20:53:36.235Z,6.23
2019-05-17T20:56:06.649Z,6.07
2019-05-17T20:58:37.096Z,6.83
2019-05-17T21:01:07.562Z,6.20
2019-05-17T21:03:37.956Z,6.70
2019-05-17T21:06:08.442Z,7.37
2019-05-17T21:08:46.181Z,7.10
2019-05-17T21:11:30.346Z,7.13
2019-05-17T21:14:00.856Z,7.20
2019-05-17T21:16:31.249Z,7.33
2019-05-17T21:19:01.651Z,7.57
2019-05-17T21:21:32.114Z,7.80
2019-05-17T21:24:02.698Z,7.53
2019-05-17T21:26:33.171Z,7.33
2019-05-17T21:29:03.597Z,7.57
2019-05-17T21:31:33.999Z,6.97
2019-05-17T21:34:04.515Z,7.20
2019-05-17T21:36:35.003Z,7.83
2019-05-17T21:42:08.168Z,8.30
2019-05-17T21:44:38.643Z,7.70
2019-05-17T21:47:09.072Z,8.00
2019-05-17T21:49:39.515Z,7.70
2019-05-17T21:52:10.104Z,7.83
2019-05-17T21:54:40.794Z,7.67
2019-05-17T21:57:11.499Z,8.03
2019-05-17T21:59:41.903Z,8.00
2019-05-17T22:02:12.362Z,7.50
2019-05-17T22:04:42.730Z,7.27
2019-05-17T22:07:13.171Z,7.60
2019-05-17T22:09:43.634Z,9.40
2019-05-17T22:12:33.479Z,8.97
2019-05-17T22:15:23.273Z,9.17
2019-05-17T22:18:13.171Z,8.90
2019-05-17T22:21:03.039Z,9.03
2019-05-17T22:23:52.848Z,9.30
2019-05-17T22:26:23.240Z,9.00
2019-05-17T22:28:53.600Z,9.43
2019-05-17T22:31:24.033Z,9.07
2019-05-17T22:33:54.417Z,9.60
2019-05-17T22:36:24.844Z,8.50
2019-05-17T22:38:55.342Z,9.00
2019-05-17T22:41:25.746Z,8.90
2019-05-17T22:43:56.130Z,10.30
2019-05-17T22:46:35.565Z,8.30
2019-05-17T22:49:18.105Z,9.57
2019-05-17T22:51:48.650Z,12.90
2019-05-17T22:54:19.058Z,11.00
2019-05-17T22:56:49.596Z,10.00
2019-05-17T22:59:19.969Z,10.73
2019-05-17T23:01:50.451Z,10.10
2019-05-17T23:04:20.851Z,9.27
2019-05-17T23:06:51.334Z,9.17
2019-05-17T23:09:21.775Z,9.43
2019-05-17T23:11:52.296Z,9.17
2019-05-17T23:14:22.679Z,9.70
2019-05-17T23:16:53.120Z,9.93
2019-05-17T23:19:23.493Z,10.00
2019-05-17T23:21:53.953Z,9.30
2019-05-17T23:24:24.405Z,9.93
2019-05-17T23:26:54.835Z,9.93
2019-05-17T23:29:25.203Z,10.60
2019-05-17T23:31:55.700Z,9.93
2019-05-17T23:34:26.111Z,11.10
2019-05-17T23:36:56.485Z,10.90
2019-05-17T23:39:46.241Z,9.97
2019-05-17T23:42:16.742Z,9.73
2019-05-17T23:44:47.112Z,9.20
2019-05-17T23:47:17.648Z,10.43
2019-05-17T23:49:48.032Z,10.13
2019-05-17T23:52:18.454Z,9.80
2019-05-17T23:54:48.836Z,9.70
2019-05-17T23:57:19.330Z,10.33
2019-05-17T23:59:49.709Z,9.40
